Time;durP1;ratioP1;P1;durP2;ratioP2;P2;SDS_P1;SDS_P2;PMS_P1;PMS_P2;Temp;Humidity;BMP_temperature;BMP_pressure;BME280_temperature;BME280_humidity;BME280_pressure;Samples;Min_cycle;Max_cycle;Signal;HPM_P1;HPM_P2
2022/04/29 00:02:07;;;;;;;8.57;4.28;;;;;;;6.19;91.93;102954.78;5031540;28;20598;-48
2022/04/29 00:04:33;;;;;;;11.23;5.10;;;;;;;6.03;92.02;102958.06;5031465;28;20200;-48
2022/04/29 00:06:59;;;;;;;6.03;4.40;;;;;;;5.96;91.98;102955.31;5031905;28;20198;-48
2022/04/29 00:09:24;;;;;;;11.82;4.38;;;;;;;5.99;92.25;102959.78;5031202;28;20223;-48
2022/04/29 00:11:51;;;;;;;6.30;4.50;;;;;;;5.87;92.16;102954.25;5031624;28;20168;-50
2022/04/29 00:14:17;;;;;;;10.73;5.13;;;;;;;5.85;92.34;102962.19;5031054;28;20255;-48
2022/04/29 00:16:43;;;;;;;7.97;4.55;;;;;;;5.82;91.95;102951.53;5031640;28;20662;-47
2022/04/29 00:19:08;;;;;;;9.85;4.60;;;;;;;5.83;92.12;102940.00;5031006;28;20620;-49
2022/04/29 00:21:33;;;;;;;8.32;4.40;;;;;;;5.69;93.03;102954.88;5031388;28;20184;-51
2022/04/29 00:23:59;;;;;;;7.35;4.82;;;;;;;5.82;93.11;102955.97;5031097;28;20326;-50
2022/04/29 00:26:24;;;;;;;9.88;4.28;;;;;;;5.72;93.45;102946.91;5031157;28;20168;-48
2022/04/29 00:28:50;;;;;;;12.07;4.80;;;;;;;5.69;93.41;102949.53;5031292;28;20572;-49
2022/04/29 00:31:15;;;;;;;8.32;4.70;;;;;;;5.78;93.68;102949.69;5029727;28;20184;-49
2022/04/29 00:33:41;;;;;;;9.40;4.82;;;;;;;5.71;93.30;102953.13;5031220;28;20176;-47
2022/04/29 00:36:07;;;;;;;12.73;4.82;;;;;;;5.67;93.24;102965.47;5046021;28;20184;-48
2022/04/29 00:38:32;;;;;;;14.52;4.90;;;;;;;5.66;93.72;102953.03;5030982;28;20200;-51
2022/04/29 00:40:58;;;;;;;7.78;4.55;;;;;;;5.71;93.67;102946.03;5031049;28;20200;-48
2022/04/29 00:43:23;;;;;;;7.60;4.32;;;;;;;5.69;93.43;102947.78;5029310;28;20297;-49
2022/04/29 00:45:48;;;;;;;13.98;5.43;;;;;;;5.58;93.49;102949.38;5030757;28;20318;-49
2022/04/29 00:48:14;;;;;;;7.88;4.28;;;;;;;5.58;94.01;102955.56;5029853;28;20169;-48
2022/04/29 00:50:40;;;;;;;9.07;4.75;;;;;;;5.25;94.36;102955.88;5030661;28;20184;-47
2022/04/29 00:53:09;;;;;;;10.55;5.10;;;;;;;5.28;95.28;102947.97;5030307;28;20192;-47
2022/04/29 00:55:38;;;;;;;9.00;5.00;;;;;;;5.39;95.43;102942.84;5030450;28;20176;-47
2022/04/29 00:58:16;;;;;;;11.57;5.30;;;;;;;5.36;95.53;102940.13;5029837;28;20270;-47
2022/04/29 01:00:42;;;;;;;10.48;4.75;;;;;;;5.43;95.21;102935.81;5030935;28;20170;-48
2022/04/29 01:03:13;;;;;;;8.40;4.88;;;;;;;5.41;95.05;102927.81;5029085;28;20659;-47
2022/04/29 01:05:39;;;;;;;8.48;4.53;;;;;;;5.39;94.72;102920.69;5028854;28;20223;-47
2022/04/29 01:08:06;;;;;;;10.35;4.75;;;;;;;5.35;94.33;102925.94;5028940;28;20584;-46
2022/04/29 01:10:32;;;;;;;8.77;4.68;;;;;;;5.35;93.94;102917.94;5045885;28;20294;-47
2022/04/29 01:13:02;;;;;;;20.98;4.72;;;;;;;5.35;94.14;102927.69;5029215;28;20176;-46
2022/04/29 01:15:29;;;;;;;9.48;4.57;;;;;;;5.32;94.02;102930.31;5042472;28;20210;-46
2022/04/29 01:18:05;;;;;;;8.80;4.18;;;;;;;5.30;94.38;102929.38;5030400;28;20620;-47
2022/04/29 01:20:32;;;;;;;8.32;4.32;;;;;;;5.12;94.40;102936.16;5042560;28;20175;-46
2022/04/29 01:22:58;;;;;;;9.45;4.55;;;;;;;5.08;94.78;102934.31;5048901;28;20191;-47
2022/04/29 01:25:25;;;;;;;10.88;4.38;;;;;;;5.17;95.18;102925.63;5036869;28;20195;-46
2022/04/29 01:27:53;;;;;;;7.72;4.90;;;;;;;5.10;95.10;102929.03;5044519;28;20210;-46
2022/04/29 01:30:20;;;;;;;11.05;4.55;;;;;;;5.12;95.43;102928.19;5048931;28;20207;-46
2022/04/29 01:32:46;;;;;;;9.52;4.95;;;;;;;5.17;95.45;102922.97;5048945;28;20175;-46
2022/04/29 01:35:13;;;;;;;10.00;4.63;;;;;;;5.25;95.41;102912.47;5048458;28;20474;-45
2022/04/29 01:37:40;;;;;;;9.43;4.80;;;;;;;5.20;95.14;102924.78;5048814;28;20183;-45
2022/04/29 01:40:06;;;;;;;9.88;4.18;;;;;;;5.21;95.08;102924.81;5047544;28;20245;-46
2022/04/29 01:42:33;;;;;;;8.25;4.60;;;;;;;4.97;95.07;102932.34;5030261;28;20190;-44
2022/04/29 01:44:59;;;;;;;11.43;5.30;;;;;;;5.03;95.67;102930.69;5042039;28;20622;-44
2022/04/29 01:47:25;;;;;;;8.63;5.05;;;;;;;4.93;95.91;102937.56;5049192;28;20179;-44
2022/04/29 01:50:03;;;;;;;6.57;4.43;;;;;;;4.91;96.36;102927.78;5048706;28;20225;-44
2022/04/29 01:52:30;;;;;;;9.88;5.13;;;;;;;4.80;96.64;102913.41;5065900;28;20270;-44
2022/04/29 01:54:56;;;;;;;11.05;4.75;;;;;;;4.79;97.05;102908.94;5050179;28;20246;-45
2022/04/29 01:57:21;;;;;;;9.45;4.55;;;;;;;5.02;97.22;102906.75;5054011;28;20693;-45
2022/04/29 01:59:47;;;;;;;9.55;5.65;;;;;;;4.92;97.04;102916.31;5069352;28;20207;-43
2022/04/29 02:02:35;;;;;;;9.23;4.53;;;;;;;5.03;96.76;102901.47;5046507;28;20222;-45
2022/04/29 02:05:01;;;;;;;10.65;4.63;;;;;;;4.98;96.54;102907.56;5069460;28;20226;-46
2022/04/29 02:07:28;;;;;;;10.48;4.45;;;;;;;4.95;96.48;102908.41;5069310;28;20270;-45
2022/04/29 02:09:56;;;;;;;11.15;4.57;;;;;;;4.98;96.51;102908.44;5053843;28;20207;-49
2022/04/29 02:12:23;;;;;;;7.63;4.15;;;;;;;5.01;96.60;102902.28;5053053;28;20218;-48
2022/04/29 02:15:09;;;;;;;13.88;4.80;;;;;;;4.82;96.19;102896.63;5022452;28;20274;-46
2022/04/29 02:17:40;;;;;;;8.70;4.18;;;;;;;4.99;96.88;102896.97;5069358;28;20384;-46
2022/04/29 02:20:07;;;;;;;8.27;4.47;;;;;;;4.99;96.45;102904.94;5052453;28;20286;-46
2022/04/29 02:22:33;;;;;;;8.05;4.75;;;;;;;4.95;96.43;102909.28;5052944;28;20177;-47
2022/04/29 02:24:59;;;;;;;15.32;5.35;;;;;;;4.97;96.33;102917.28;5052474;28;20301;-47
2022/04/29 02:27:24;;;;;;;10.77;4.80;;;;;;;4.91;96.51;102895.91;5069378;28;20237;-45
2022/04/29 02:29:50;;;;;;;8.27;4.38;;;;;;;4.89;96.45;102887.91;5068878;28;20207;-48
2022/04/29 02:32:17;;;;;;;10.73;4.80;;;;;;;4.77;96.83;102898.31;5068887;28;20176;-45
2022/04/29 02:34:44;;;;;;;6.63;4.53;;;;;;;4.88;97.27;102903.84;5053793;28;20627;-48
2022/04/29 02:37:11;;;;;;;9.18;4.85;;;;;;;4.92;97.38;102892.41;5052357;28;20217;-46
2022/04/29 02:39:37;;;;;;;10.98;4.70;;;;;;;4.87;97.54;102886.97;5052407;28;20294;-46
2022/04/29 02:42:04;;;;;;;5.90;4.53;;;;;;;4.94;97.46;102891.56;5053651;28;20579;-46
2022/04/29 02:44:29;;;;;;;7.65;4.97;;;;;;;4.82;97.42;102888.66;5068901;28;20229;-46
2022/04/29 02:47:08;;;;;;;9.43;5.47;;;;;;;4.73;97.70;102899.13;5068784;28;20506;-49
2022/04/29 02:49:39;;;;;;;11.45;5.25;;;;;;;4.75;97.78;102897.41;5052272;28;20195;-46
2022/04/29 02:52:09;;;;;;;10.88;5.10;;;;;;;4.70;97.97;102891.09;5068376;28;20206;-49
2022/04/29 02:54:36;;;;;;;9.20;5.13;;;;;;;4.80;98.35;102902.78;5068765;28;20182;-46
2022/04/29 02:57:05;;;;;;;10.23;5.10;;;;;;;4.80;97.95;102895.72;5051877;28;20168;-47
2022/04/29 02:59:35;;;;;;;8.48;4.70;;;;;;;4.91;97.81;102880.88;5068258;28;20219;-47
2022/04/29 03:02:00;;;;;;;8.80;4.60;;;;;;;4.75;97.65;102886.78;5051497;28;20217;-47
2022/04/29 03:04:26;;;;;;;12.68;5.47;;;;;;;4.64;97.86;102885.69;5068312;28;20206;-47
2022/04/29 03:06:52;;;;;;;11.35;5.10;;;;;;;4.71;98.50;102884.94;5052103;28;20167;-46
2022/04/29 03:09:17;;;;;;;7.30;4.63;;;;;;;4.79;98.45;102882.41;5051892;28;20209;-46
2022/04/29 03:11:43;;;;;;;8.45;5.50;;;;;;;4.79;98.54;102890.38;5052527;28;20552;-46
2022/04/29 03:14:08;;;;;;;11.88;5.18;;;;;;;4.63;98.55;102882.09;5052728;28;20180;-46
2022/04/29 03:16:34;;;;;;;10.50;5.60;;;;;;;4.64;98.96;102886.56;5043508;28;20275;-48
2022/04/29 03:19:00;;;;;;;15.30;5.65;;;;;;;4.70;98.95;102885.78;5040171;28;20277;-46
2022/04/29 03:21:26;;;;;;;12.07;5.30;;;;;;;4.75;98.58;102884.13;5051349;28;20598;-45
2022/04/29 03:23:52;;;;;;;9.43;5.55;;;;;;;4.66;98.60;102892.81;5052012;28;20199;-45
2022/04/29 03:26:18;;;;;;;10.50;5.07;;;;;;;4.67;98.99;102885.72;5050829;28;20206;-46
2022/04/29 03:28:45;;;;;;;10.52;5.20;;;;;;;4.64;98.67;102893.66;5052348;28;20206;-45
2022/04/29 03:31:11;;;;;;;6.75;4.72;;;;;;;4.67;99.11;102891.03;5050971;28;20171;-47
2022/04/29 03:33:55;;;;;;;10.93;5.07;;;;;;;4.60;98.86;102889.13;5044331;28;20199;-47
2022/04/29 03:36:20;;;;;;;5.72;4.82;;;;;;;4.59;99.09;102884.69;5044058;28;20180;-48
2022/04/29 03:38:52;;;;;;;11.65;5.35;;;;;;;4.58;99.07;102877.59;5050641;28;20184;-46
2022/04/29 03:41:19;;;;;;;8.00;4.88;;;;;;;4.57;99.07;102886.41;5040512;28;20663;-46
2022/04/29 03:43:44;;;;;;;8.00;4.97;;;;;;;4.60;98.92;102876.75;5047100;28;20230;-48
2022/04/29 03:46:16;;;;;;;8.82;5.18;;;;;;;4.54;98.82;102877.50;5066246;28;20190;-46
2022/04/29 03:52:09;;;;;;;7.53;4.90;;;;;;;4.48;99.06;102881.81;5050662;28;20181;-48
2022/04/29 03:54:34;;;;;;;9.05;5.35;;;;;;;4.42;99.27;102885.25;5066703;28;20552;-46
2022/04/29 03:57:01;;;;;;;8.48;4.78;;;;;;;4.47;99.55;102883.56;5066703;28;20646;-46
2022/04/29 03:59:28;;;;;;;10.48;5.03;;;;;;;4.44;99.29;102880.88;5051557;28;20206;-46
2022/04/29 04:01:54;;;;;;;7.95;5.78;;;;;;;4.42;99.67;102887.91;5066443;28;20183;-47
2022/04/29 04:04:19;;;;;;;7.78;4.88;;;;;;;4.38;99.45;102880.75;5050006;28;20211;-46
2022/04/29 04:06:52;;;;;;;11.63;5.90;;;;;;;4.36;99.58;102877.16;5050051;28;20262;-46
2022/04/29 04:09:28;;;;;;;6.22;4.88;;;;;;;4.46;99.69;102880.88;5049988;28;20221;-46
2022/04/29 04:12:00;;;;;;;7.00;4.53;;;;;;;4.47;99.52;102888.88;5066296;28;20615;-47
2022/04/29 04:14:52;;;;;;;7.18;4.82;;;;;;;4.41;99.11;102870.16;5051365;28;20193;-47
2022/04/29 04:17:17;;;;;;;9.98;5.50;;;;;;;4.39;99.04;102877.22;5049856;28;20183;-47
2022/04/29 04:19:43;;;;;;;8.43;5.00;;;;;;;4.45;99.61;102866.72;5049216;28;20229;-45
2022/04/29 04:22:09;;;;;;;7.55;4.85;;;;;;;4.52;99.45;102879.25;5049674;28;20183;-47
2022/04/29 04:24:34;;;;;;;11.25;4.97;;;;;;;4.64;99.45;102865.31;5066217;28;20627;-48
2022/04/29 04:27:02;;;;;;;7.20;5.15;;;;;;;4.69;99.04;102861.00;5049407;28;20167;-45
2022/04/29 04:29:27;;;;;;;8.50;5.38;;;;;;;4.72;98.84;102884.03;5050863;28;20566;-45
2022/04/29 04:31:53;;;;;;;10.38;4.90;;;;;;;4.76;98.84;102872.63;5066175;28;20585;-46
2022/04/29 04:37:03;;;;;;;7.90;5.10;;;;;;;4.87;98.71;102864.84;5049442;28;20650;-46
2022/04/29 04:39:29;;;;;;;6.68;4.45;;;;;;;4.86;98.37;102874.59;5065674;28;20207;-45
2022/04/29 04:42:01;;;;;;;7.30;4.88;;;;;;;4.96;98.53;102867.66;5066350;28;20296;-46
2022/04/29 04:44:37;;;;;;;7.15;4.45;;;;;;;5.01;98.56;102873.97;5049657;28;20199;-46
2022/04/29 04:47:03;;;;;;;9.82;4.47;;;;;;;5.00;98.20;102879.25;5049701;28;20241;-45
2022/04/29 04:50:01;;;;;;;8.15;4.82;;;;;;;5.06;98.13;102879.38;5050198;28;20713;-45
2022/04/29 04:52:28;;;;;;;9.25;4.60;;;;;;;4.99;98.00;102880.13;5066226;28;20747;-47
2022/04/29 04:54:54;;;;;;;12.48;5.43;;;;;;;5.04;97.73;102881.09;5050819;28;20159;-46
2022/04/29 04:57:22;;;;;;;10.77;4.97;;;;;;;5.07;97.76;102879.41;5065925;28;20654;-47
2022/04/29 04:59:48;;;;;;;10.05;4.80;;;;;;;5.20;98.04;102884.91;5032579;28;20191;-45
2022/04/29 05:02:13;;;;;;;10.02;5.30;;;;;;;5.33;97.70;102877.16;5065943;28;20171;-47
2022/04/29 05:04:44;;;;;;;8.93;4.85;;;;;;;5.53;97.57;102881.91;5050103;28;20744;-49
2022/04/29 05:07:40;;;;;;;9.40;4.90;;;;;;;5.85;96.86;102878.84;5066102;28;20179;-47
2022/04/29 05:10:11;;;;;;;9.05;4.63;;;;;;;6.05;95.61;102880.03;5048898;28;20199;-47
2022/04/29 05:12:39;;;;;;;11.82;4.63;;;;;;;6.30;94.66;102878.59;5049027;28;20206;-45
2022/04/29 05:15:17;;;;;;;9.10;4.00;;;;;;;6.44;93.58;102877.88;5065229;28;20208;-46
2022/04/29 05:17:43;;;;;;;8.95;4.40;;;;;;;6.52;92.70;102884.19;5049231;28;20221;-48
2022/04/29 05:20:25;;;;;;;10.63;4.10;;;;;;;6.68;92.18;102888.81;5048715;28;20278;-46
2022/04/29 05:22:50;;;;;;;9.88;3.83;;;;;;;6.59;91.44;102900.25;5048773;28;20221;-46
2022/04/29 05:25:16;;;;;;;11.07;4.10;;;;;;;6.49;90.90;102884.16;5065485;28;20245;-45
2022/04/29 05:28:00;;;;;;;8.32;4.07;;;;;;;6.44;90.95;102881.44;5050305;28;20279;-46
2022/04/29 05:30:44;;;;;;;7.20;3.83;;;;;;;6.66;90.61;102887.00;5049404;28;20174;-45
2022/04/29 05:33:31;;;;;;;9.73;3.60;;;;;;;6.70;90.09;102886.16;5050100;28;20170;-47
2022/04/29 05:36:35;;;;;;;9.18;3.47;;;;;;;6.65;89.14;102895.84;5007764;28;20192;-47
2022/04/29 05:42:17;;;;;;;5.47;3.50;;;;;;;7.08;88.60;102883.88;5049883;28;20199;-46
2022/04/29 05:44:43;;;;;;;11.73;3.20;;;;;;;7.29;87.93;102879.63;5049147;28;20273;-46
2022/04/29 05:47:10;;;;;;;9.30;3.40;;;;;;;7.43;86.79;102876.22;5065291;28;20179;-46
2022/04/29 05:49:37;;;;;;;6.85;3.40;;;;;;;7.41;86.26;102880.63;5048537;28;20305;-48
2022/04/29 05:52:04;;;;;;;7.45;3.28;;;;;;;7.61;85.87;102883.44;5048260;28;20175;-49
2022/04/29 05:54:33;;;;;;;6.72;3.15;;;;;;;7.84;84.89;102878.25;5049051;28;20284;-48
2022/04/29 05:56:59;;;;;;;9.15;3.33;;;;;;;8.27;84.13;102877.59;5048392;28;20253;-47
2022/04/29 05:59:25;;;;;;;6.90;3.20;;;;;;;8.32;83.38;102880.28;5048226;28;20200;-46
2022/04/29 06:01:58;;;;;;;11.77;3.72;;;;;;;8.41;82.71;102875.88;5049047;28;20174;-46
2022/04/29 06:04:31;;;;;;;8.82;3.22;;;;;;;8.17;82.09;102875.75;5048041;28;20238;-47
2022/04/29 06:06:57;;;;;;;5.47;2.58;;;;;;;8.16;82.68;102880.22;5048252;28;20200;-46
2022/04/29 06:09:22;;;;;;;6.35;2.65;;;;;;;8.27;81.92;102871.38;5049754;28;20277;-46
2022/04/29 06:11:48;;;;;;;9.77;2.90;;;;;;;8.13;80.61;102877.50;5048386;28;20194;-45
2022/04/29 06:14:25;;;;;;;5.30;2.42;;;;;;;8.33;80.47;102868.69;5065101;28;20201;-46
2022/04/29 06:17:14;;;;;;;9.73;2.45;;;;;;;8.34;79.92;102863.38;5020931;28;20190;-46
2022/04/29 06:19:51;;;;;;;7.07;2.55;;;;;;;8.16;81.09;102871.31;5049875;28;20276;-47
2022/04/29 06:22:52;;;;;;;6.47;2.35;;;;;;;8.01;80.50;102880.13;5049824;28;20221;-47
2022/04/29 06:25:25;;;;;;;6.82;2.22;;;;;;;8.07;81.77;102880.16;5047478;28;20204;-46
2022/04/29 06:27:52;;;;;;;10.93;2.83;;;;;;;8.01;81.60;102880.13;5048590;28;20180;-47
2022/04/29 06:30:17;;;;;;;5.28;2.50;;;;;;;8.14;81.85;102887.31;5064990;28;20207;-46
2022/04/29 06:32:56;;;;;;;7.63;2.38;;;;;;;8.14;81.13;102883.75;5065161;28;20261;-47
2022/04/29 06:35:26;;;;;;;4.65;2.20;;;;;;;8.24;80.33;102894.50;5049083;28;20159;-47
2022/04/29 06:37:52;;;;;;;6.63;2.38;;;;;;;8.65;79.45;102879.53;5048471;28;20662;-46
2022/04/29 06:40:46;;;;;;;10.55;2.40;;;;;;;8.73;78.52;102874.22;5012395;28;20228;-49
2022/04/29 06:43:12;;;;;;;5.32;2.38;;;;;;;8.36;79.41;102877.63;5067580;28;20203;-46
2022/04/29 06:46:17;;;;;;;7.22;2.53;;;;;;;8.84;78.66;102877.78;5021496;28;20228;-48
2022/04/29 06:49:03;;;;;;;7.80;2.95;;;;;;;9.14;77.95;102884.06;5053322;28;20207;-46
2022/04/29 06:51:46;;;;;;;6.30;2.28;;;;;;;9.07;77.10;102876.06;5053233;28;20302;-48
2022/04/29 06:54:19;;;;;;;8.35;2.50;;;;;;;8.51;77.31;102892.84;5068577;28;20175;-46
2022/04/29 06:56:50;;;;;;;7.32;2.22;;;;;;;8.39;77.75;102896.31;5067591;28;20179;-46
2022/04/29 06:59:16;;;;;;;5.50;2.47;;;;;;;8.70;78.52;102892.91;5051888;28;20572;-47
2022/04/29 07:01:42;;;;;;;10.68;2.38;;;;;;;8.88;77.93;102882.25;5051523;28;20217;-47
2022/04/29 07:04:08;;;;;;;6.22;1.80;;;;;;;8.91;77.20;102890.28;5053000;28;20223;-47
2022/04/29 07:06:33;;;;;;;6.25;1.95;;;;;;;8.97;76.61;102887.63;5050970;28;20205;-48
2022/04/29 07:09:01;;;;;;;6.40;1.75;;;;;;;9.02;74.59;102879.59;5067849;28;20198;-46
2022/04/29 07:11:46;;;;;;;5.72;1.60;;;;;;;8.67;73.98;102888.44;5052885;28;20234;-48
2022/04/29 07:14:31;;;;;;;6.10;1.63;;;;;;;9.08;74.65;102890.31;5052416;28;20186;-47
2022/04/29 07:17:09;;;;;;;7.40;2.13;;;;;;;9.07;74.16;102883.16;5052527;28;20159;-47
2022/04/29 07:19:42;;;;;;;4.50;1.80;;;;;;;9.10;74.52;102885.84;5050880;28;20217;-46
2022/04/29 07:22:08;;;;;;;7.47;1.92;;;;;;;8.85;74.84;102893.84;5068057;28;20167;-48
2022/04/29 07:24:40;;;;;;;3.58;1.90;;;;;;;9.00;74.53;102892.06;5067554;28;20336;-48
2022/04/29 07:27:06;;;;;;;5.82;2.20;;;;;;;8.98;75.29;102889.38;5051006;28;20183;-46
2022/04/29 07:29:31;;;;;;;5.82;1.90;;;;;;;9.33;74.74;102901.91;5067713;28;20195;-47
2022/04/29 07:32:02;;;;;;;7.15;2.00;;;;;;;9.20;73.44;102898.31;5050783;28;20262;-48
2022/04/29 07:43:21;;;;;;;4.18;1.48;;;;;;;9.82;70.33;102893.84;5050629;28;20232;-47
2022/04/29 07:45:51;;;;;;;5.80;1.60;;;;;;;9.59;69.81;102892.97;5050308;28;20184;-47
2022/04/29 07:48:28;;;;;;;3.05;1.23;;;;;;;10.38;69.58;102889.22;5051985;28;20199;-48
2022/04/29 07:50:55;;;;;;;6.55;1.77;;;;;;;10.65;67.68;102890.00;5067100;28;20175;-47
2022/04/29 07:53:21;;;;;;;6.15;1.67;;;;;;;10.66;66.67;102889.97;5051496;28;20197;-47
2022/04/29 07:55:47;;;;;;;7.85;1.27;;;;;;;10.78;67.60;102882.75;5066664;28;20215;-47
2022/04/29 07:58:14;;;;;;;3.70;1.55;;;;;;;10.60;67.38;102881.09;5067127;28;20187;-47
2022/04/29 08:00:40;;;;;;;4.82;1.48;;;;;;;10.44;66.62;102881.16;5050291;28;20179;-47
2022/04/29 08:03:06;;;;;;;6.40;1.80;;;;;;;11.02;65.62;102879.94;5050459;28;20191;-47
2022/04/29 08:05:55;;;;;;;4.88;1.50;;;;;;;11.59;64.91;102875.88;5050122;28;20203;-46
2022/04/29 08:08:21;;;;;;;3.58;1.42;;;;;;;11.96;64.02;102879.13;5050261;28;20175;-47
2022/04/29 08:10:49;;;;;;;7.63;1.80;;;;;;;11.45;63.39;102874.22;5066904;28;20175;-47
2022/04/29 08:13:15;;;;;;;6.03;1.45;;;;;;;11.73;63.38;102873.94;5051640;28;20198;-47
2022/04/29 08:15:59;;;;;;;6.65;1.80;;;;;;;11.82;64.56;102873.84;5051564;28;20211;-47
2022/04/29 08:18:52;;;;;;;5.47;2.20;;;;;;;12.27;63.34;102881.44;5049041;28;20222;-47
2022/04/29 08:21:26;;;;;;;6.45;1.50;;;;;;;12.67;61.42;102883.59;5050164;28;20194;-47
2022/04/29 08:23:51;;;;;;;5.25;1.83;;;;;;;12.66;60.21;102880.03;5066346;28;20282;-46
2022/04/29 08:26:17;;;;;;;4.63;1.80;;;;;;;12.48;59.84;102869.50;5066082;28;20187;-46
2022/04/29 08:28:43;;;;;;;4.18;1.38;;;;;;;11.75;61.11;102878.41;5066543;28;20245;-46
2022/04/29 08:31:09;;;;;;;3.72;1.30;;;;;;;12.09;62.58;102878.06;5051431;28;20614;-48
2022/04/29 08:33:50;;;;;;;5.07;1.77;;;;;;;11.61;63.17;102874.97;5049756;28;20672;-49
2022/04/29 08:36:18;;;;;;;6.13;1.60;;;;;;;12.43;62.14;102863.31;5066213;28;20250;-47
2022/04/29 08:38:44;;;;;;;6.13;1.73;;;;;;;11.50;63.80;102885.81;5049625;28;20283;-48
2022/04/29 08:41:10;;;;;;;4.93;1.80;;;;;;;11.22;64.16;102870.84;5066340;28;20544;-46
2022/04/29 08:43:39;;;;;;;5.57;1.73;;;;;;;11.48;64.68;102870.63;5028185;22;20310;-47
2022/04/29 08:46:08;;;;;;;8.02;1.90;;;;;;;11.12;65.19;102873.59;4999668;28;20189;-49
2022/04/29 08:48:53;;;;;;;7.25;1.80;;;;;;;11.99;63.28;102868.34;5016666;28;20252;-47
2022/04/29 08:51:19;;;;;;;5.95;1.83;;;;;;;12.29;62.90;102871.56;5030501;28;20592;-46
2022/04/29 08:53:47;;;;;;;5.40;2.00;;;;;;;12.64;62.13;102865.72;5030770;28;20184;-48
2022/04/29 08:59:00;;;;;;;5.50;2.10;;;;;;;11.46;62.41;102873.31;5030825;28;20212;-46
2022/04/29 09:01:26;;;;;;;5.55;1.98;;;;;;;10.54;64.84;102878.44;5030827;28;20210;-48
2022/04/29 09:03:52;;;;;;;4.70;1.85;;;;;;;11.07;66.54;102872.75;5030466;28;20198;-48
2022/04/29 09:06:19;;;;;;;4.50;2.00;;;;;;;11.44;65.22;102863.50;5029387;28;20180;-48
2022/04/29 09:08:47;;;;;;;3.85;1.90;;;;;;;10.91;64.53;102866.59;5030871;28;20196;-48
2022/04/29 09:11:25;;;;;;;7.03;2.22;;;;;;;11.44;64.23;102872.44;5030907;28;20226;-45
2022/04/29 09:13:50;;;;;;;6.00;1.98;;;;;;;11.75;64.01;102885.56;5030338;28;20538;-46
2022/04/29 09:16:18;;;;;;;5.95;2.10;;;;;;;11.10;63.37;102883.44;5013123;28;20642;-45
2022/04/29 09:18:48;;;;;;;3.70;2.28;;;;;;;10.60;65.41;102890.00;5029315;28;20274;-46
2022/04/29 09:21:27;;;;;;;10.43;2.50;;;;;;;10.46;66.51;102884.72;5030020;28;20579;-46
2022/04/29 09:23:59;;;;;;;6.93;2.22;;;;;;;10.07;65.75;102883.06;5030695;28;20183;-46
2022/04/29 09:26:43;;;;;;;5.90;2.13;;;;;;;10.04;66.29;102883.09;5028833;28;20279;-48
2022/04/29 09:29:31;;;;;;;5.72;2.13;;;;;;;10.86;65.66;102878.25;5012581;28;20247;-46
2022/04/29 09:32:16;;;;;;;5.80;2.47;;;;;;;11.24;64.83;102872.63;5015376;28;20241;-47
2022/04/29 09:35:43;;;;;;;6.63;2.67;;;;;;;11.44;63.11;102876.94;5029663;28;20210;-46
2022/04/29 09:40:56;;;;;;;5.82;2.58;;;;;;;11.65;63.22;102868.66;5030550;28;20218;-47
2022/04/29 09:43:34;;;;;;;4.30;3.22;;;;;;;11.91;62.13;102873.78;5029813;28;20236;-44
2022/04/29 09:46:23;;;;;;;6.63;2.53;;;;;;;11.62;62.04;102865.13;5028768;28;20615;-45
2022/04/29 09:48:56;;;;;;;6.00;2.45;;;;;;;11.35;61.82;102867.16;5029952;28;20202;-46
2022/04/29 09:51:43;;;;;;;6.10;2.92;;;;;;;10.83;64.43;102867.56;5030336;28;20249;-46
2022/04/29 09:54:19;;;;;;;7.00;2.63;;;;;;;11.87;62.76;102855.00;5030175;28;20168;-46
2022/04/29 09:57:04;;;;;;;6.15;2.40;;;;;;;12.46;62.80;102863.25;5029882;28;20215;-46
2022/04/29 09:59:35;;;;;;;3.63;2.35;;;;;;;12.91;60.57;102848.25;5028713;28;20200;-47
2022/04/29 10:02:01;;;;;;;4.55;3.00;;;;;;;12.65;59.31;102858.53;5030150;28;20191;-47
2022/04/29 10:04:34;;;;;;;5.30;2.78;;;;;;;11.78;59.79;102855.97;5029796;28;20211;-48
2022/04/29 10:07:05;;;;;;;5.65;2.75;;;;;;;12.36;58.85;102843.69;5029630;28;20200;-48
2022/04/29 10:09:32;;;;;;;5.53;2.47;;;;;;;11.21;60.45;102858.31;5028499;28;20337;-44
2022/04/29 10:12:00;;;;;;;6.30;3.15;;;;;;;11.64;62.54;102857.94;5030272;28;20705;-45
2022/04/29 10:14:27;;;;;;;5.60;2.33;;;;;;;12.24;60.69;102854.59;5029729;28;20176;-46
2022/04/29 10:23:04;;;;;;;8.30;2.80;;;;;;;11.58;61.59;102844.56;5033730;28;20175;-46
2022/04/29 10:25:30;;;;;;;6.80;2.83;;;;;;;11.61;60.93;102834.69;5033118;28;20200;-46
2022/04/29 10:27:57;;;;;;;6.18;3.22;;;;;;;11.64;61.13;102847.19;5032542;28;20180;-46
2022/04/29 10:30:30;;;;;;;7.05;2.53;;;;;;;11.97;60.25;102847.78;5033144;28;20191;-45
2022/04/29 10:33:09;;;;;;;5.82;2.67;;;;;;;12.95;57.59;102827.59;5033494;28;20176;-52
2022/04/29 10:35:47;;;;;;;6.00;2.47;;;;;;;12.86;56.97;102828.63;5032704;28;20271;-47
2022/04/29 10:38:13;;;;;;;4.40;2.55;;;;;;;13.06;56.82;102831.00;5033394;28;20191;-47
2022/04/29 10:40:39;;;;;;;6.20;2.50;;;;;;;13.95;55.85;102821.31;5033328;28;20196;-45
2022/04/29 10:43:09;;;;;;;6.75;2.55;;;;;;;14.15;55.28;102820.00;5033193;28;20168;-45
2022/04/29 10:45:55;;;;;;;7.25;2.88;;;;;;;14.45;54.75;102822.94;5033005;28;20203;-47
2022/04/29 10:48:33;;;;;;;4.15;2.35;;;;;;;13.90;55.08;102823.19;5031653;28;20267;-46
2022/04/29 10:51:28;;;;;;;6.22;3.03;;;;;;;14.22;54.26;102809.03;5013392;28;20191;-46
2022/04/29 10:54:12;;;;;;;8.98;3.13;;;;;;;14.27;55.41;102813.44;5033271;28;20286;-46
2022/04/29 10:57:14;;;;;;;2.88;2.33;;;;;;;13.65;56.66;102830.00;5032280;28;20245;-45
2022/04/29 11:00:13;;;;;;;6.85;2.67;;;;;;;13.46;57.98;102818.66;5033116;28;20266;-46
2022/04/29 11:02:47;;;;;;;9.82;2.60;;;;;;;13.87;59.10;102825.06;4995445;28;20258;-47
2022/04/29 11:05:36;;;;;;;7.03;2.90;;;;;;;13.44;57.69;102821.38;5031593;28;20200;-46
2022/04/29 11:08:07;;;;;;;5.90;3.05;;;;;;;13.68;57.20;102819.16;5033002;28;20203;-47
2022/04/29 11:10:56;;;;;;;9.95;3.28;;;;;;;12.53;59.17;102830.91;5032882;28;20614;-46
2022/04/29 11:13:23;;;;;;;9.23;3.20;;;;;;;12.00;60.25;102818.16;5014889;28;20244;-45
2022/04/29 11:16:14;;;;;;;5.20;2.80;;;;;;;13.60;58.33;102809.41;5032870;28;20195;-45
2022/04/29 11:19:19;;;;;;;6.75;2.60;;;;;;;14.52;56.12;102805.69;5031605;28;20207;-46
2022/04/29 11:24:41;;;;;;;6.18;2.70;;;;;;;14.91;54.27;102803.00;5032732;28;20560;-46
2022/04/29 11:27:06;;;;;;;7.50;2.67;;;;;;;14.09;53.79;102802.13;5014919;28;20317;-45
2022/04/29 11:29:41;;;;;;;8.32;2.55;;;;;;;14.60;53.34;102799.22;5030101;28;20287;-48
2022/04/29 11:32:38;;;;;;;3.65;2.53;;;;;;;14.38;53.46;102792.53;5032749;28;20175;-44
2022/04/29 11:35:04;;;;;;;4.07;2.47;;;;;;;14.36;53.60;102808.72;5032222;28;20203;-46
2022/04/29 11:37:34;;;;;;;5.93;2.65;;;;;;;14.15;54.09;102795.75;5014678;28;20168;-46
2022/04/29 11:40:05;;;;;;;8.10;2.70;;;;;;;14.06;55.62;102810.31;5032059;28;20665;-47
2022/04/29 11:42:31;;;;;;;6.40;2.70;;;;;;;13.94;54.83;102806.03;5032549;28;20188;-48
2022/04/29 11:45:04;;;;;;;7.40;2.78;;;;;;;13.47;54.89;102815.97;5032187;28;20254;-45
2022/04/29 11:47:34;;;;;;;5.50;2.90;;;;;;;12.86;56.59;102806.22;5030500;28;20175;-49
2022/04/29 11:50:03;;;;;;;5.53;3.13;;;;;;;12.99;56.93;102791.66;5031610;28;20212;-47
2022/04/29 11:52:32;;;;;;;5.82;2.80;;;;;;;13.44;55.31;102796.25;5032097;28;20156;-47
2022/04/29 11:55:03;;;;;;;7.45;3.40;;;;;;;12.99;55.29;102781.78;5032225;28;20578;-46
2022/04/29 11:57:34;;;;;;;5.55;2.80;;;;;;;13.95;55.86;102790.75;5031730;28;20238;-47
2022/04/29 12:00:03;;;;;;;9.50;3.40;;;;;;;13.31;56.43;102793.78;5031796;28;20314;-50
2022/04/29 12:02:45;;;;;;;5.45;2.72;;;;;;;13.84;55.60;102776.63;5030737;28;20238;-47
2022/04/29 12:05:11;;;;;;;5.40;2.92;;;;;;;13.04;56.01;102784.38;5031787;28;20475;-47
2022/04/29 12:07:45;;;;;;;5.90;3.08;;;;;;;13.84;54.10;102777.53;5030992;28;20558;-47
2022/04/29 12:10:24;;;;;;;5.10;2.75;;;;;;;14.36;53.75;102762.00;5030367;28;20250;-50
2022/04/29 12:12:55;;;;;;;5.03;2.60;;;;;;;14.58;54.73;102770.50;5031400;28;20183;-48
2022/04/29 12:15:24;;;;;;;8.10;3.22;;;;;;;14.42;52.56;102754.66;5031856;28;20218;-48
2022/04/29 12:17:49;;;;;;;5.60;2.92;;;;;;;13.12;54.20;102760.91;5031337;28;20180;-47
2022/04/29 12:20:20;;;;;;;6.20;3.22;;;;;;;13.22;55.70;102771.50;5031345;28;20438;-48
2022/04/29 12:22:48;;;;;;;9.10;3.17;;;;;;;13.67;54.80;102764.41;5031490;28;20347;-47